sensor_id;sensor_type;location;lat;lon;timestamp;P1;durP1;ratioP1;P2;durP2;ratioP2
74791;SDS011;63319;46.046;17.802;2022-11-14T00:00:34;12.95;;;8.07;;
74791;SDS011;63319;46.046;17.802;2022-11-14T00:03:56;11.65;;;7.57;;
74791;SDS011;63319;46.046;17.802;2022-11-14T00:07:17;12.02;;;7.90;;
74791;SDS011;63319;46.046;17.802;2022-11-14T00:10:38;12.07;;;7.75;;
74791;SDS011;63319;46.046;17.802;2022-11-14T00:13:59;13.17;;;7.80;;
74791;SDS011;63319;46.046;17.802;2022-11-14T00:17:21;12.20;;;8.13;;
74791;SDS011;63319;46.046;17.802;2022-11-14T00:20:42;12.32;;;8.35;;
74791;SDS011;63319;46.046;17.802;2022-11-14T00:24:04;12.43;;;7.63;;
74791;SDS011;63319;46.046;17.802;2022-11-14T00:27:25;11.63;;;7.13;;
74791;SDS011;63319;46.046;17.802;2022-11-14T00:30:47;11.77;;;7.63;;
74791;SDS011;63319;46.046;17.802;2022-11-14T00:34:08;12.05;;;7.93;;
74791;SDS011;63319;46.046;17.802;2022-11-14T00:37:30;11.18;;;7.38;;
74791;SDS011;63319;46.046;17.802;2022-11-14T00:40:51;11.40;;;7.45;;
74791;SDS011;63319;46.046;17.802;2022-11-14T00:44:12;11.38;;;7.28;;
74791;SDS011;63319;46.046;17.802;2022-11-14T00:47:33;12.63;;;7.40;;
74791;SDS011;63319;46.046;17.802;2022-11-14T00:50:55;11.52;;;7.10;;
74791;SDS011;63319;46.046;17.802;2022-11-14T00:54:16;12.15;;;8.07;;
74791;SDS011;63319;46.046;17.802;2022-11-14T00:57:37;12.35;;;7.03;;
74791;SDS011;63319;46.046;17.802;2022-11-14T01:00:58;10.15;;;6.93;;
74791;SDS011;63319;46.046;17.802;2022-11-14T01:04:20;12.07;;;7.60;;
74791;SDS011;63319;46.046;17.802;2022-11-14T01:07:44;11.07;;;7.05;;
74791;SDS011;63319;46.046;17.802;2022-11-14T01:11:09;11.63;;;7.28;;
74791;SDS011;63319;46.046;17.802;2022-11-14T01:14:32;12.05;;;8.20;;
74791;SDS011;63319;46.046;17.802;2022-11-14T01:17:53;10.38;;;6.63;;
74791;SDS011;63319;46.046;17.802;2022-11-14T01:21:15;12.50;;;7.57;;
74791;SDS011;63319;46.046;17.802;2022-11-14T01:24:36;11.30;;;7.20;;
74791;SDS011;63319;46.046;17.802;2022-11-14T01:27:57;10.85;;;6.80;;
74791;SDS011;63319;46.046;17.802;2022-11-14T01:31:20;11.30;;;6.85;;
74791;SDS011;63319;46.046;17.802;2022-11-14T01:34:42;11.52;;;7.60;;
74791;SDS011;63319;46.046;17.802;2022-11-14T01:38:04;11.33;;;7.00;;
74791;SDS011;63319;46.046;17.802;2022-11-14T01:41:27;10.20;;;6.90;;
74791;SDS011;63319;46.046;17.802;2022-11-14T01:44:49;11.38;;;7.05;;
74791;SDS011;63319;46.046;17.802;2022-11-14T01:48:36;11.77;;;7.28;;
74791;SDS011;63319;46.046;17.802;2022-11-14T01:52:14;10.95;;;6.65;;
74791;SDS011;63319;46.046;17.802;2022-11-14T01:55:41;10.20;;;6.87;;
74791;SDS011;63319;46.046;17.802;2022-11-14T02:02:29;10.57;;;7.03;;
74791;SDS011;63319;46.046;17.802;2022-11-14T02:05:50;10.98;;;6.63;;
74791;SDS011;63319;46.046;17.802;2022-11-14T02:09:12;10.90;;;7.57;;
74791;SDS011;63319;46.046;17.802;2022-11-14T02:12:34;10.40;;;6.60;;
74791;SDS011;63319;46.046;17.802;2022-11-14T02:15:57;10.25;;;6.85;;
74791;SDS011;63319;46.046;17.802;2022-11-14T02:19:18;10.23;;;6.60;;
74791;SDS011;63319;46.046;17.802;2022-11-14T02:22:40;10.50;;;6.95;;
74791;SDS011;63319;46.046;17.802;2022-11-14T02:26:02;10.80;;;7.03;;
74791;SDS011;63319;46.046;17.802;2022-11-14T02:29:23;11.30;;;6.63;;
74791;SDS011;63319;46.046;17.802;2022-11-14T02:32:44;10.57;;;6.75;;
74791;SDS011;63319;46.046;17.802;2022-11-14T02:36:25;10.02;;;6.03;;
74791;SDS011;63319;46.046;17.802;2022-11-14T02:39:47;10.82;;;6.63;;
74791;SDS011;63319;46.046;17.802;2022-11-14T02:43:09;10.80;;;7.03;;
74791;SDS011;63319;46.046;17.802;2022-11-14T02:46:30;11.30;;;6.70;;
74791;SDS011;63319;46.046;17.802;2022-11-14T02:49:51;9.88;;;6.50;;
74791;SDS011;63319;46.046;17.802;2022-11-14T02:53:13;10.45;;;6.57;;
74791;SDS011;63319;46.046;17.802;2022-11-14T02:56:34;10.20;;;5.90;;
74791;SDS011;63319;46.046;17.802;2022-11-14T02:59:56;10.18;;;6.32;;
74791;SDS011;63319;46.046;17.802;2022-11-14T03:03:17;9.80;;;6.73;;
74791;SDS011;63319;46.046;17.802;2022-11-14T03:06:39;10.45;;;6.25;;
74791;SDS011;63319;46.046;17.802;2022-11-14T03:10:00;9.43;;;6.28;;
74791;SDS011;63319;46.046;17.802;2022-11-14T03:13:22;9.82;;;6.20;;
74791;SDS011;63319;46.046;17.802;2022-11-14T03:16:43;10.13;;;6.50;;
74791;SDS011;63319;46.046;17.802;2022-11-14T03:20:05;9.30;;;5.77;;
74791;SDS011;63319;46.046;17.802;2022-11-14T03:23:27;12.52;;;6.88;;
74791;SDS011;63319;46.046;17.802;2022-11-14T03:26:48;10.00;;;6.55;;
74791;SDS011;63319;46.046;17.802;2022-11-14T03:30:09;10.38;;;5.90;;
74791;SDS011;63319;46.046;17.802;2022-11-14T03:33:31;9.45;;;6.10;;
74791;SDS011;63319;46.046;17.802;2022-11-14T03:36:53;9.33;;;6.23;;
74791;SDS011;63319;46.046;17.802;2022-11-14T03:40:16;9.65;;;6.47;;
74791;SDS011;63319;46.046;17.802;2022-11-14T03:43:37;9.68;;;6.25;;
74791;SDS011;63319;46.046;17.802;2022-11-14T03:46:58;9.63;;;6.13;;
74791;SDS011;63319;46.046;17.802;2022-11-14T03:50:20;11.07;;;6.60;;
74791;SDS011;63319;46.046;17.802;2022-11-14T03:53:41;11.53;;;6.40;;
74791;SDS011;63319;46.046;17.802;2022-11-14T03:57:03;9.93;;;5.70;;
74791;SDS011;63319;46.046;17.802;2022-11-14T04:00:24;9.13;;;5.88;;
74791;SDS011;63319;46.046;17.802;2022-11-14T04:03:48;9.00;;;5.68;;
74791;SDS011;63319;46.046;17.802;2022-11-14T04:07:09;8.60;;;5.40;;
74791;SDS011;63319;46.046;17.802;2022-11-14T04:10:31;9.17;;;6.00;;
74791;SDS011;63319;46.046;17.802;2022-11-14T04:13:52;10.73;;;6.07;;
74791;SDS011;63319;46.046;17.802;2022-11-14T04:17:13;8.57;;;5.78;;
74791;SDS011;63319;46.046;17.802;2022-11-14T04:20:35;8.85;;;5.57;;
74791;SDS011;63319;46.046;17.802;2022-11-14T04:23:57;8.68;;;5.68;;
74791;SDS011;63319;46.046;17.802;2022-11-14T04:27:18;8.30;;;5.23;;
74791;SDS011;63319;46.046;17.802;2022-11-14T04:30:41;8.48;;;5.63;;
74791;SDS011;63319;46.046;17.802;2022-11-14T04:34:02;9.48;;;5.45;;
74791;SDS011;63319;46.046;17.802;2022-11-14T04:37:23;8.50;;;5.20;;
74791;SDS011;63319;46.046;17.802;2022-11-14T04:40:51;9.57;;;5.82;;
74791;SDS011;63319;46.046;17.802;2022-11-14T04:44:12;8.97;;;5.60;;
74791;SDS011;63319;46.046;17.802;2022-11-14T04:47:34;8.55;;;5.72;;
74791;SDS011;63319;46.046;17.802;2022-11-14T04:50:55;8.65;;;4.97;;
74791;SDS011;63319;46.046;17.802;2022-11-14T04:54:16;9.55;;;5.78;;
74791;SDS011;63319;46.046;17.802;2022-11-14T04:57:38;9.18;;;5.82;;
74791;SDS011;63319;46.046;17.802;2022-11-14T05:00:59;8.77;;;5.40;;
74791;SDS011;63319;46.046;17.802;2022-11-14T05:04:27;8.88;;;5.45;;
74791;SDS011;63319;46.046;17.802;2022-11-14T05:07:48;9.40;;;5.90;;
74791;SDS011;63319;46.046;17.802;2022-11-14T05:11:13;8.77;;;5.45;;
74791;SDS011;63319;46.046;17.802;2022-11-14T05:14:36;8.57;;;5.53;;
74791;SDS011;63319;46.046;17.802;2022-11-14T05:17:57;8.40;;;5.47;;
74791;SDS011;63319;46.046;17.802;2022-11-14T05:21:18;8.18;;;5.15;;
74791;SDS011;63319;46.046;17.802;2022-11-14T05:24:40;9.43;;;5.95;;
74791;SDS011;63319;46.046;17.802;2022-11-14T05:28:01;8.35;;;5.32;;
74791;SDS011;63319;46.046;17.802;2022-11-14T05:31:22;8.98;;;5.35;;
74791;SDS011;63319;46.046;17.802;2022-11-14T05:34:43;7.77;;;4.90;;
74791;SDS011;63319;46.046;17.802;2022-11-14T05:38:05;8.82;;;5.47;;
74791;SDS011;63319;46.046;17.802;2022-11-14T05:41:26;8.57;;;5.47;;
74791;SDS011;63319;46.046;17.802;2022-11-14T05:44:47;8.93;;;5.28;;
74791;SDS011;63319;46.046;17.802;2022-11-14T05:48:08;9.00;;;5.63;;
74791;SDS011;63319;46.046;17.802;2022-11-14T05:51:29;7.90;;;4.87;;
74791;SDS011;63319;46.046;17.802;2022-11-14T05:54:51;8.15;;;5.07;;
74791;SDS011;63319;46.046;17.802;2022-11-14T05:58:12;8.70;;;5.47;;
74791;SDS011;63319;46.046;17.802;2022-11-14T06:01:33;8.55;;;5.53;;
74791;SDS011;63319;46.046;17.802;2022-11-14T06:04:55;8.38;;;5.03;;
74791;SDS011;63319;46.046;17.802;2022-11-14T06:08:16;8.40;;;5.07;;
74791;SDS011;63319;46.046;17.802;2022-11-14T06:11:37;8.52;;;5.13;;
74791;SDS011;63319;46.046;17.802;2022-11-14T06:14:59;8.38;;;5.20;;
74791;SDS011;63319;46.046;17.802;2022-11-14T06:18:20;9.27;;;5.55;;
74791;SDS011;63319;46.046;17.802;2022-11-14T06:21:41;8.75;;;5.32;;
74791;SDS011;63319;46.046;17.802;2022-11-14T06:25:02;7.97;;;4.90;;
74791;SDS011;63319;46.046;17.802;2022-11-14T06:28:24;7.70;;;4.72;;
74791;SDS011;63319;46.046;17.802;2022-11-14T06:31:45;8.18;;;5.13;;
74791;SDS011;63319;46.046;17.802;2022-11-14T06:35:06;8.95;;;5.53;;
74791;SDS011;63319;46.046;17.802;2022-11-14T06:38:32;8.25;;;4.95;;
74791;SDS011;63319;46.046;17.802;2022-11-14T06:41:54;8.10;;;5.40;;
74791;SDS011;63319;46.046;17.802;2022-11-14T06:45:16;7.82;;;5.10;;
74791;SDS011;63319;46.046;17.802;2022-11-14T06:48:37;8.13;;;5.30;;
74791;SDS011;63319;46.046;17.802;2022-11-14T06:51:59;7.68;;;4.95;;
74791;SDS011;63319;46.046;17.802;2022-11-14T06:55:20;8.02;;;4.97;;
74791;SDS011;63319;46.046;17.802;2022-11-14T06:58:46;8.50;;;5.50;;
74791;SDS011;63319;46.046;17.802;2022-11-14T07:02:11;7.47;;;4.78;;
74791;SDS011;63319;46.046;17.802;2022-11-14T07:05:41;8.25;;;5.43;;
74791;SDS011;63319;46.046;17.802;2022-11-14T07:09:02;8.07;;;5.28;;
74791;SDS011;63319;46.046;17.802;2022-11-14T07:12:24;7.60;;;4.88;;
74791;SDS011;63319;46.046;17.802;2022-11-14T07:15:50;12.40;;;9.03;;
74791;SDS011;63319;46.046;17.802;2022-11-14T07:19:14;9.55;;;6.03;;
74791;SDS011;63319;46.046;17.802;2022-11-14T07:22:35;8.95;;;5.63;;
74791;SDS011;63319;46.046;17.802;2022-11-14T07:26:04;9.27;;;5.68;;
74791;SDS011;63319;46.046;17.802;2022-11-14T07:29:29;9.80;;;6.20;;
74791;SDS011;63319;46.046;17.802;2022-11-14T07:32:54;9.80;;;6.00;;
74791;SDS011;63319;46.046;17.802;2022-11-14T07:36:17;8.93;;;5.85;;
74791;SDS011;63319;46.046;17.802;2022-11-14T07:39:43;10.65;;;5.85;;
74791;SDS011;63319;46.046;17.802;2022-11-14T07:43:26;10.98;;;5.25;;
74791;SDS011;63319;46.046;17.802;2022-11-14T07:46:51;10.38;;;5.85;;
74791;SDS011;63319;46.046;17.802;2022-11-14T07:50:12;10.13;;;5.90;;
74791;SDS011;63319;46.046;17.802;2022-11-14T07:53:39;12.10;;;6.70;;
74791;SDS011;63319;46.046;17.802;2022-11-14T07:57:01;9.15;;;5.75;;
74791;SDS011;63319;46.046;17.802;2022-11-14T08:00:23;13.90;;;9.18;;
74791;SDS011;63319;46.046;17.802;2022-11-14T08:03:44;14.02;;;8.20;;
74791;SDS011;63319;46.046;17.802;2022-11-14T08:07:06;16.63;;;10.63;;
74791;SDS011;63319;46.046;17.802;2022-11-14T08:10:28;13.52;;;9.63;;
74791;SDS011;63319;46.046;17.802;2022-11-14T08:13:53;15.75;;;11.30;;
74791;SDS011;63319;46.046;17.802;2022-11-14T08:17:14;21.38;;;13.10;;
74791;SDS011;63319;46.046;17.802;2022-11-14T08:20:36;23.92;;;15.52;;
74791;SDS011;63319;46.046;17.802;2022-11-14T08:23:57;23.37;;;14.73;;
74791;SDS011;63319;46.046;17.802;2022-11-14T08:27:19;15.65;;;9.35;;
74791;SDS011;63319;46.046;17.802;2022-11-14T08:30:40;13.55;;;8.02;;
74791;SDS011;63319;46.046;17.802;2022-11-14T08:34:01;11.98;;;6.93;;
74791;SDS011;63319;46.046;17.802;2022-11-14T08:37:23;12.55;;;7.05;;
74791;SDS011;63319;46.046;17.802;2022-11-14T08:40:44;15.23;;;10.10;;
74791;SDS011;63319;46.046;17.802;2022-11-14T08:44:06;15.85;;;11.20;;
74791;SDS011;63319;46.046;17.802;2022-11-14T08:47:27;18.35;;;10.57;;
74791;SDS011;63319;46.046;17.802;2022-11-14T08:50:48;15.65;;;10.82;;
74791;SDS011;63319;46.046;17.802;2022-11-14T08:54:16;18.40;;;11.93;;
74791;SDS011;63319;46.046;17.802;2022-11-14T08:57:37;18.80;;;11.03;;
74791;SDS011;63319;46.046;17.802;2022-11-14T09:00:59;15.00;;;10.18;;
74791;SDS011;63319;46.046;17.802;2022-11-14T09:04:24;16.05;;;9.90;;
74791;SDS011;63319;46.046;17.802;2022-11-14T09:07:45;17.60;;;12.10;;
74791;SDS011;63319;46.046;17.802;2022-11-14T09:11:07;18.92;;;12.65;;
74791;SDS011;63319;46.046;17.802;2022-11-14T09:14:30;15.90;;;10.37;;
74791;SDS011;63319;46.046;17.802;2022-11-14T09:17:53;22.98;;;14.98;;
74791;SDS011;63319;46.046;17.802;2022-11-14T09:21:14;20.55;;;13.35;;
74791;SDS011;63319;46.046;17.802;2022-11-14T09:24:36;21.48;;;12.77;;
74791;SDS011;63319;46.046;17.802;2022-11-14T09:27:57;22.70;;;14.98;;
74791;SDS011;63319;46.046;17.802;2022-11-14T09:31:22;19.27;;;12.30;;
74791;SDS011;63319;46.046;17.802;2022-11-14T09:34:44;15.90;;;11.57;;
74791;SDS011;63319;46.046;17.802;2022-11-14T09:38:07;16.75;;;10.45;;
74791;SDS011;63319;46.046;17.802;2022-11-14T09:41:44;15.00;;;10.05;;
74791;SDS011;63319;46.046;17.802;2022-11-14T09:45:21;21.40;;;10.63;;
74791;SDS011;63319;46.046;17.802;2022-11-14T09:48:42;17.07;;;10.77;;
74791;SDS011;63319;46.046;17.802;2022-11-14T09:56:08;17.95;;;11.05;;
74791;SDS011;63319;46.046;17.802;2022-11-14T09:59:33;14.48;;;9.93;;
74791;SDS011;63319;46.046;17.802;2022-11-14T10:03:14;17.23;;;10.50;;
74791;SDS011;63319;46.046;17.802;2022-11-14T10:06:44;18.53;;;11.40;;
74791;SDS011;63319;46.046;17.802;2022-11-14T10:17:43;15.98;;;8.35;;
74791;SDS011;63319;46.046;17.802;2022-11-14T10:21:22;15.68;;;8.23;;
74791;SDS011;63319;46.046;17.802;2022-11-14T10:32:35;14.30;;;9.30;;
74791;SDS011;63319;46.046;17.802;2022-11-14T10:36:27;13.93;;;9.57;;
74791;SDS011;63319;46.046;17.802;2022-11-14T10:40:01;18.08;;;11.02;;
74791;SDS011;63319;46.046;17.802;2022-11-14T10:43:36;14.90;;;9.00;;
74791;SDS011;63319;46.046;17.802;2022-11-14T10:47:10;10.85;;;7.25;;
74791;SDS011;63319;46.046;17.802;2022-11-14T10:54:16;17.65;;;11.00;;
74791;SDS011;63319;46.046;17.802;2022-11-14T10:57:59;15.52;;;10.30;;
74791;SDS011;63319;46.046;17.802;2022-11-14T11:01:39;14.90;;;9.23;;
74791;SDS011;63319;46.046;17.802;2022-11-14T11:05:19;18.40;;;9.73;;
74791;SDS011;63319;46.046;17.802;2022-11-14T11:08:54;17.67;;;10.15;;
74791;SDS011;63319;46.046;17.802;2022-11-14T11:13:11;14.30;;;10.15;;
74791;SDS011;63319;46.046;17.802;2022-11-14T11:16:25;14.85;;;10.38;;
74791;SDS011;63319;46.046;17.802;2022-11-14T11:19:48;18.57;;;10.70;;
74791;SDS011;63319;46.046;17.802;2022-11-14T11:23:26;14.35;;;10.07;;
74791;SDS011;63319;46.046;17.802;2022-11-14T11:26:48;17.52;;;11.07;;
74791;SDS011;63319;46.046;17.802;2022-11-14T11:31:00;18.73;;;10.90;;
74791;SDS011;63319;46.046;17.802;2022-11-14T11:34:26;15.88;;;12.23;;
74791;SDS011;63319;46.046;17.802;2022-11-14T11:37:50;17.37;;;11.10;;
74791;SDS011;63319;46.046;17.802;2022-11-14T11:41:18;16.98;;;12.45;;
74791;SDS011;63319;46.046;17.802;2022-11-14T11:45:12;18.17;;;13.10;;
74791;SDS011;63319;46.046;17.802;2022-11-14T11:48:38;18.98;;;14.15;;
74791;SDS011;63319;46.046;17.802;2022-11-14T11:52:11;16.38;;;10.40;;
74791;SDS011;63319;46.046;17.802;2022-11-14T11:55:51;19.23;;;13.87;;
74791;SDS011;63319;46.046;17.802;2022-11-14T11:59:30;17.42;;;12.50;;
74791;SDS011;63319;46.046;17.802;2022-11-14T12:02:55;20.55;;;14.13;;
74791;SDS011;63319;46.046;17.802;2022-11-14T12:06:18;20.38;;;14.48;;
74791;SDS011;63319;46.046;17.802;2022-11-14T12:09:44;19.92;;;14.35;;
74791;SDS011;63319;46.046;17.802;2022-11-14T12:36:23;23.40;;;16.60;;
74791;SDS011;63319;46.046;17.802;2022-11-14T12:40:17;19.85;;;14.95;;
74791;SDS011;63319;46.046;17.802;2022-11-14T12:43:46;22.13;;;15.57;;
74791;SDS011;63319;46.046;17.802;2022-11-14T12:50:31;25.43;;;16.60;;
74791;SDS011;63319;46.046;17.802;2022-11-14T12:54:01;22.63;;;17.08;;
74791;SDS011;63319;46.046;17.802;2022-11-14T12:57:32;22.92;;;17.17;;
74791;SDS011;63319;46.046;17.802;2022-11-14T13:04:44;22.80;;;16.60;;
74791;SDS011;63319;46.046;17.802;2022-11-14T13:16:24;24.92;;;18.23;;
74791;SDS011;63319;46.046;17.802;2022-11-14T13:24:01;23.27;;;15.45;;
74791;SDS011;63319;46.046;17.802;2022-11-14T13:27:24;22.27;;;14.67;;
74791;SDS011;63319;46.046;17.802;2022-11-14T13:42:06;25.20;;;15.40;;
74791;SDS011;63319;46.046;17.802;2022-11-14T13:49:17;22.42;;;15.35;;
74791;SDS011;63319;46.046;17.802;2022-11-14T13:52:52;22.05;;;16.17;;
74791;SDS011;63319;46.046;17.802;2022-11-14T14:15:10;23.67;;;17.95;;
74791;SDS011;63319;46.046;17.802;2022-11-14T14:30:31;26.95;;;16.38;;
74791;SDS011;63319;46.046;17.802;2022-11-14T14:33:53;27.83;;;16.15;;
74791;SDS011;63319;46.046;17.802;2022-11-14T14:37:18;30.15;;;15.88;;
74791;SDS011;63319;46.046;17.802;2022-11-14T14:40:59;22.40;;;15.20;;
74791;SDS011;63319;46.046;17.802;2022-11-14T14:44:28;29.27;;;16.38;;
74791;SDS011;63319;46.046;17.802;2022-11-14T14:48:05;23.90;;;15.63;;
74791;SDS011;63319;46.046;17.802;2022-11-14T14:51:33;23.23;;;15.68;;
74791;SDS011;63319;46.046;17.802;2022-11-14T14:54:56;26.15;;;15.07;;
74791;SDS011;63319;46.046;17.802;2022-11-14T15:01:43;24.65;;;16.00;;
74791;SDS011;63319;46.046;17.802;2022-11-14T15:05:05;27.65;;;15.85;;
74791;SDS011;63319;46.046;17.802;2022-11-14T15:08:27;25.13;;;14.90;;
74791;SDS011;63319;46.046;17.802;2022-11-14T15:11:52;22.35;;;15.57;;
74791;SDS011;63319;46.046;17.802;2022-11-14T15:15:16;21.50;;;14.93;;
74791;SDS011;63319;46.046;17.802;2022-11-14T15:18:40;20.70;;;14.20;;
74791;SDS011;63319;46.046;17.802;2022-11-14T15:22:17;23.75;;;14.77;;
74791;SDS011;63319;46.046;17.802;2022-11-14T15:25:43;24.10;;;14.55;;
74791;SDS011;63319;46.046;17.802;2022-11-14T15:29:05;23.30;;;15.40;;
74791;SDS011;63319;46.046;17.802;2022-11-14T15:32:35;26.73;;;15.40;;
74791;SDS011;63319;46.046;17.802;2022-11-14T15:36:06;19.73;;;14.80;;
74791;SDS011;63319;46.046;17.802;2022-11-14T15:39:40;24.65;;;14.85;;
74791;SDS011;63319;46.046;17.802;2022-11-14T15:46:56;21.05;;;14.27;;
74791;SDS011;63319;46.046;17.802;2022-11-14T15:50:29;20.80;;;13.53;;
74791;SDS011;63319;46.046;17.802;2022-11-14T15:53:53;22.45;;;14.32;;
74791;SDS011;63319;46.046;17.802;2022-11-14T15:57:14;22.85;;;14.63;;
74791;SDS011;63319;46.046;17.802;2022-11-14T16:00:43;20.88;;;14.43;;
74791;SDS011;63319;46.046;17.802;2022-11-14T16:04:08;20.52;;;13.65;;
74791;SDS011;63319;46.046;17.802;2022-11-14T16:07:34;19.97;;;13.80;;
74791;SDS011;63319;46.046;17.802;2022-11-14T16:10:55;23.10;;;14.52;;
74791;SDS011;63319;46.046;17.802;2022-11-14T16:14:17;19.67;;;14.13;;
74791;SDS011;63319;46.046;17.802;2022-11-14T16:17:39;21.02;;;14.05;;
74791;SDS011;63319;46.046;17.802;2022-11-14T16:21:02;22.08;;;14.18;;
74791;SDS011;63319;46.046;17.802;2022-11-14T16:24:23;19.50;;;13.77;;
74791;SDS011;63319;46.046;17.802;2022-11-14T16:27:50;21.02;;;14.73;;
74791;SDS011;63319;46.046;17.802;2022-11-14T16:31:12;22.45;;;14.60;;
74791;SDS011;63319;46.046;17.802;2022-11-14T16:34:34;21.42;;;15.63;;
74791;SDS011;63319;46.046;17.802;2022-11-14T16:37:56;20.90;;;14.48;;
74791;SDS011;63319;46.046;17.802;2022-11-14T16:41:17;22.87;;;15.57;;
74791;SDS011;63319;46.046;17.802;2022-11-14T16:44:39;22.50;;;14.27;;
74791;SDS011;63319;46.046;17.802;2022-11-14T16:48:27;18.95;;;14.30;;
74791;SDS011;63319;46.046;17.802;2022-11-14T16:51:49;20.02;;;14.35;;
74791;SDS011;63319;46.046;17.802;2022-11-14T16:55:10;21.25;;;14.93;;
74791;SDS011;63319;46.046;17.802;2022-11-14T16:58:54;22.53;;;16.27;;
74791;SDS011;63319;46.046;17.802;2022-11-14T17:02:15;21.45;;;15.13;;
74791;SDS011;63319;46.046;17.802;2022-11-14T17:05:43;23.23;;;15.25;;
74791;SDS011;63319;46.046;17.802;2022-11-14T17:09:06;22.08;;;15.50;;
74791;SDS011;63319;46.046;17.802;2022-11-14T17:12:27;25.92;;;17.88;;
74791;SDS011;63319;46.046;17.802;2022-11-14T17:15:48;22.73;;;15.83;;
74791;SDS011;63319;46.046;17.802;2022-11-14T17:19:09;26.92;;;18.00;;
74791;SDS011;63319;46.046;17.802;2022-11-14T17:22:31;23.92;;;16.58;;
74791;SDS011;63319;46.046;17.802;2022-11-14T17:25:52;23.70;;;17.38;;
74791;SDS011;63319;46.046;17.802;2022-11-14T17:29:22;23.80;;;17.50;;
74791;SDS011;63319;46.046;17.802;2022-11-14T17:32:43;22.57;;;16.10;;
74791;SDS011;63319;46.046;17.802;2022-11-14T17:36:05;24.23;;;16.50;;
74791;SDS011;63319;46.046;17.802;2022-11-14T17:39:29;22.27;;;16.05;;
74791;SDS011;63319;46.046;17.802;2022-11-14T17:42:51;21.30;;;15.93;;
74791;SDS011;63319;46.046;17.802;2022-11-14T17:46:12;19.10;;;14.27;;
74791;SDS011;63319;46.046;17.802;2022-11-14T17:49:36;20.10;;;14.33;;
74791;SDS011;63319;46.046;17.802;2022-11-14T17:52:57;22.23;;;15.15;;
74791;SDS011;63319;46.046;17.802;2022-11-14T17:56:20;21.65;;;14.75;;
74791;SDS011;63319;46.046;17.802;2022-11-14T17:59:43;23.73;;;15.77;;
74791;SDS011;63319;46.046;17.802;2022-11-14T18:03:04;21.20;;;14.77;;
74791;SDS011;63319;46.046;17.802;2022-11-14T18:06:26;22.20;;;14.40;;
74791;SDS011;63319;46.046;17.802;2022-11-14T18:09:47;20.58;;;14.38;;
74791;SDS011;63319;46.046;17.802;2022-11-14T18:13:09;19.20;;;14.25;;
74791;SDS011;63319;46.046;17.802;2022-11-14T18:16:32;20.65;;;14.95;;
74791;SDS011;63319;46.046;17.802;2022-11-14T18:20:18;24.33;;;14.77;;
74791;SDS011;63319;46.046;17.802;2022-11-14T18:23:39;21.97;;;13.93;;
74791;SDS011;63319;46.046;17.802;2022-11-14T18:27:01;19.48;;;14.45;;
74791;SDS011;63319;46.046;17.802;2022-11-14T18:30:23;21.10;;;14.20;;
74791;SDS011;63319;46.046;17.802;2022-11-14T18:34:01;23.52;;;15.07;;
74791;SDS011;63319;46.046;17.802;2022-11-14T18:37:22;23.77;;;15.65;;
74791;SDS011;63319;46.046;17.802;2022-11-14T18:40:46;21.73;;;15.07;;
74791;SDS011;63319;46.046;17.802;2022-11-14T18:44:16;22.92;;;13.88;;
74791;SDS011;63319;46.046;17.802;2022-11-14T18:47:38;19.33;;;13.90;;
74791;SDS011;63319;46.046;17.802;2022-11-14T18:51:01;21.35;;;13.73;;
74791;SDS011;63319;46.046;17.802;2022-11-14T18:54:27;20.20;;;14.70;;
74791;SDS011;63319;46.046;17.802;2022-11-14T18:57:48;20.43;;;14.50;;
74791;SDS011;63319;46.046;17.802;2022-11-14T19:01:11;20.85;;;14.25;;
74791;SDS011;63319;46.046;17.802;2022-11-14T19:04:34;23.08;;;15.00;;
74791;SDS011;63319;46.046;17.802;2022-11-14T19:07:57;20.25;;;14.88;;
74791;SDS011;63319;46.046;17.802;2022-11-14T19:11:26;20.17;;;14.70;;
74791;SDS011;63319;46.046;17.802;2022-11-14T19:15:06;21.47;;;15.00;;
74791;SDS011;63319;46.046;17.802;2022-11-14T19:18:29;21.13;;;14.80;;
74791;SDS011;63319;46.046;17.802;2022-11-14T19:21:51;22.40;;;14.65;;
74791;SDS011;63319;46.046;17.802;2022-11-14T19:25:13;22.15;;;15.82;;
74791;SDS011;63319;46.046;17.802;2022-11-14T19:28:34;21.73;;;14.35;;
74791;SDS011;63319;46.046;17.802;2022-11-14T19:31:56;19.30;;;13.57;;
74791;SDS011;63319;46.046;17.802;2022-11-14T19:35:17;20.92;;;14.13;;
74791;SDS011;63319;46.046;17.802;2022-11-14T19:38:40;18.80;;;13.40;;
74791;SDS011;63319;46.046;17.802;2022-11-14T19:42:02;21.10;;;13.98;;
74791;SDS011;63319;46.046;17.802;2022-11-14T19:45:24;20.30;;;14.70;;
74791;SDS011;63319;46.046;17.802;2022-11-14T19:48:46;21.53;;;14.37;;
74791;SDS011;63319;46.046;17.802;2022-11-14T19:52:09;19.00;;;12.88;;
74791;SDS011;63319;46.046;17.802;2022-11-14T19:55:31;22.00;;;14.90;;
74791;SDS011;63319;46.046;17.802;2022-11-14T19:58:53;19.98;;;14.13;;
74791;SDS011;63319;46.046;17.802;2022-11-14T20:02:16;18.83;;;13.13;;
74791;SDS011;63319;46.046;17.802;2022-11-14T20:05:38;19.23;;;13.83;;
74791;SDS011;63319;46.046;17.802;2022-11-14T20:09:02;19.13;;;13.40;;
74791;SDS011;63319;46.046;17.802;2022-11-14T20:12:26;22.10;;;14.48;;
74791;SDS011;63319;46.046;17.802;2022-11-14T20:15:47;18.40;;;13.27;;
74791;SDS011;63319;46.046;17.802;2022-11-14T20:19:08;18.80;;;13.63;;
74791;SDS011;63319;46.046;17.802;2022-11-14T20:22:29;19.30;;;12.77;;
74791;SDS011;63319;46.046;17.802;2022-11-14T20:25:51;21.17;;;13.52;;
74791;SDS011;63319;46.046;17.802;2022-11-14T20:29:13;18.48;;;13.45;;
74791;SDS011;63319;46.046;17.802;2022-11-14T20:32:34;19.80;;;13.50;;
74791;SDS011;63319;46.046;17.802;2022-11-14T20:36:02;19.13;;;14.35;;
74791;SDS011;63319;46.046;17.802;2022-11-14T20:39:25;18.23;;;12.43;;
74791;SDS011;63319;46.046;17.802;2022-11-14T20:42:47;18.95;;;13.38;;
74791;SDS011;63319;46.046;17.802;2022-11-14T20:46:13;20.20;;;14.05;;
74791;SDS011;63319;46.046;17.802;2022-11-14T20:49:35;17.63;;;13.10;;
74791;SDS011;63319;46.046;17.802;2022-11-14T20:52:56;18.85;;;13.10;;
74791;SDS011;63319;46.046;17.802;2022-11-14T20:56:18;19.27;;;13.97;;
74791;SDS011;63319;46.046;17.802;2022-11-14T20:59:41;19.02;;;13.15;;
74791;SDS011;63319;46.046;17.802;2022-11-14T21:03:03;18.45;;;12.45;;
74791;SDS011;63319;46.046;17.802;2022-11-14T21:06:25;18.20;;;12.68;;
74791;SDS011;63319;46.046;17.802;2022-11-14T21:09:46;18.17;;;12.68;;
74791;SDS011;63319;46.046;17.802;2022-11-14T21:13:29;18.27;;;13.03;;
74791;SDS011;63319;46.046;17.802;2022-11-14T21:17:09;18.55;;;12.90;;
74791;SDS011;63319;46.046;17.802;2022-11-14T21:20:30;20.33;;;14.68;;
74791;SDS011;63319;46.046;17.802;2022-11-14T21:23:52;18.55;;;13.38;;
74791;SDS011;63319;46.046;17.802;2022-11-14T21:27:14;18.88;;;13.00;;
74791;SDS011;63319;46.046;17.802;2022-11-14T21:30:37;17.80;;;13.23;;
74791;SDS011;63319;46.046;17.802;2022-11-14T21:33:59;19.17;;;13.50;;
74791;SDS011;63319;46.046;17.802;2022-11-14T21:37:21;16.52;;;12.15;;
74791;SDS011;63319;46.046;17.802;2022-11-14T21:40:49;19.85;;;13.02;;
74791;SDS011;63319;46.046;17.802;2022-11-14T21:44:15;17.70;;;13.15;;
74791;SDS011;63319;46.046;17.802;2022-11-14T21:47:37;17.93;;;12.27;;
74791;SDS011;63319;46.046;17.802;2022-11-14T21:51:08;18.10;;;12.23;;
74791;SDS011;63319;46.046;17.802;2022-11-14T21:54:41;16.58;;;12.00;;